createdAt,value
2022-09-21T00:01:13.650Z,8.37
2022-09-21T00:03:43.663Z,8.46
2022-09-21T00:06:13.560Z,8.43
2022-09-21T00:08:40.345Z,8.30
2022-09-21T00:11:08.684Z,8.42
2022-09-21T00:13:37.789Z,8.36
2022-09-21T00:16:08.023Z,8.24
2022-09-21T00:18:35.659Z,8.30
2022-09-21T00:21:07.147Z,8.11
2022-09-21T00:23:36.098Z,8.09
2022-09-21T00:26:22.676Z,8.18
2022-09-21T00:28:54.591Z,8.04
2022-09-21T00:31:21.837Z,7.90
2022-09-21T00:33:48.988Z,7.86
2022-09-21T00:36:17.707Z,7.86
2022-09-21T00:38:46.097Z,8.02
2022-09-21T00:41:13.582Z,8.02
2022-09-21T00:43:47.237Z,8.00
2022-09-21T00:46:28.148Z,8.01
2022-09-21T00:48:54.828Z,7.98
2022-09-21T00:51:21.654Z,8.08
2022-09-21T00:53:51.884Z,8.10
2022-09-21T00:56:20.252Z,8.11
2022-09-21T00:58:48.444Z,8.18
2022-09-21T01:01:18.735Z,8.20
2022-09-21T01:03:49.477Z,8.19
2022-09-21T01:06:18.654Z,8.26
2022-09-21T01:08:47.413Z,8.32
2022-09-21T01:11:50.782Z,8.38
2022-09-21T01:14:31.478Z,8.40
2022-09-21T01:17:09.490Z,8.41
2022-09-21T01:20:00.988Z,8.56
2022-09-21T01:22:30.451Z,8.54
2022-09-21T01:25:12.090Z,8.57
2022-09-21T01:27:52.108Z,8.59
2022-09-21T01:30:20.618Z,8.68
2022-09-21T01:33:03.445Z,8.63
2022-09-21T01:35:39.991Z,8.58
2022-09-21T01:38:14.070Z,8.78
2022-09-21T01:40:44.070Z,8.77
2022-09-21T01:43:14.313Z,8.77
2022-09-21T01:45:45.694Z,8.81
2022-09-21T01:48:13.786Z,8.70
2022-09-21T01:50:46.945Z,8.72
2022-09-21T01:53:18.750Z,8.82
2022-09-21T01:55:55.608Z,8.83
2022-09-21T01:58:34.170Z,8.75
2022-09-21T02:01:01.277Z,8.68
2022-09-21T02:03:37.308Z,8.54
2022-09-21T02:06:04.982Z,8.51
2022-09-21T02:08:32.370Z,8.58
2022-09-21T02:11:00.929Z,8.57
2022-09-21T02:13:32.226Z,8.51
2022-09-21T02:16:08.293Z,8.53
2022-09-21T02:18:57.408Z,8.63
2022-09-21T02:21:40.784Z,8.56
2022-09-21T02:24:25.955Z,8.54
2022-09-21T02:27:04.307Z,8.48
2022-09-21T02:29:49.975Z,8.47
2022-09-21T02:32:35.210Z,8.48
2022-09-21T02:35:22.573Z,8.37
2022-09-21T02:37:56.903Z,8.35
2022-09-21T02:40:31.482Z,8.34
2022-09-21T02:43:02.479Z,8.30
2022-09-21T02:45:34.316Z,8.29
2022-09-21T02:48:17.005Z,8.32
2022-09-21T02:51:10.410Z,8.37
2022-09-21T02:53:38.758Z,8.51
2022-09-21T02:56:07.334Z,8.49
2022-09-21T02:58:41.345Z,8.49
2022-09-21T03:01:11.157Z,8.61
2022-09-21T03:03:38.133Z,8.68
2022-09-21T03:06:05.068Z,8.67
2022-09-21T03:08:31.623Z,8.59
2022-09-21T03:10:58.289Z,8.81
2022-09-21T03:13:25.303Z,8.80
2022-09-21T03:16:01.674Z,8.76
2022-09-21T03:18:28.954Z,8.75
2022-09-21T03:20:55.528Z,8.77
2022-09-21T03:23:22.164Z,8.79
2022-09-21T03:25:50.095Z,8.82
2022-09-21T03:28:16.727Z,8.82
2022-09-21T03:30:44.927Z,8.70
2022-09-21T03:33:12.831Z,8.75
2022-09-21T03:35:39.634Z,8.76
2022-09-21T03:38:06.215Z,8.72
2022-09-21T03:40:33.143Z,8.92
2022-09-21T03:42:59.857Z,8.91
2022-09-21T03:45:27.446Z,8.81
2022-09-21T03:47:58.427Z,8.75
2022-09-21T03:50:26.529Z,8.69
2022-09-21T03:52:53.231Z,8.72
2022-09-21T03:55:19.906Z,8.77
2022-09-21T03:57:46.577Z,8.83
2022-09-21T04:00:13.942Z,8.80
2022-09-21T04:02:40.767Z,8.82
2022-09-21T04:05:09.290Z,8.69
2022-09-21T04:07:36.411Z,8.50
2022-09-21T04:10:08.124Z,8.58
2022-09-21T04:12:36.383Z,8.53
2022-09-21T04:15:05.171Z,8.46
2022-09-21T04:17:31.830Z,8.39
2022-09-21T04:19:58.437Z,8.46
2022-09-21T04:22:25.585Z,8.48
2022-09-21T04:24:52.254Z,8.44
2022-09-21T04:27:18.935Z,8.34
2022-09-21T04:29:45.651Z,8.33
2022-09-21T04:32:12.221Z,8.48
2022-09-21T04:34:39.518Z,8.48
2022-09-21T04:37:10.770Z,8.40
2022-09-21T04:39:37.715Z,8.49
2022-09-21T04:42:04.816Z,8.58
2022-09-21T04:44:31.443Z,8.45
2022-09-21T04:46:58.377Z,8.34
2022-09-21T04:49:25.074Z,8.29
2022-09-21T04:51:52.091Z,8.22
2022-09-21T04:54:18.635Z,8.29
2022-09-21T04:56:45.253Z,8.23
2022-09-21T04:59:11.935Z,8.20
2022-09-21T05:01:38.620Z,8.32
2022-09-21T05:04:05.750Z,8.41
2022-09-21T05:06:33.737Z,8.33
2022-09-21T05:09:19.521Z,8.40
2022-09-21T05:11:46.379Z,8.40
2022-09-21T05:14:13.085Z,8.39
2022-09-21T05:16:39.723Z,8.36
2022-09-21T05:19:06.604Z,8.49
2022-09-21T05:21:33.324Z,8.47
2022-09-21T05:23:59.899Z,8.48
2022-09-21T05:26:26.467Z,8.50
2022-09-21T05:28:53.343Z,8.66
2022-09-21T05:31:30.989Z,8.76
2022-09-21T05:33:57.595Z,8.89
2022-09-21T05:36:32.946Z,8.92
2022-09-21T05:39:00.422Z,9.03
2022-09-21T05:41:27.347Z,9.19
2022-09-21T05:43:54.254Z,9.34
2022-09-21T05:46:56.235Z,9.39
2022-09-21T05:49:29.877Z,9.63
2022-09-21T05:52:02.461Z,9.90
2022-09-21T05:54:47.240Z,9.97
2022-09-21T05:57:15.574Z,10.24
2022-09-21T05:59:59.457Z,10.43
2022-09-21T06:02:47.539Z,10.75
2022-09-21T06:05:15.195Z,11.07
2022-09-21T06:07:41.995Z,11.22
2022-09-21T06:10:10.075Z,11.45
2022-09-21T06:12:36.605Z,11.87
2022-09-21T06:15:04.290Z,11.90
2022-09-21T06:17:32.557Z,12.14
2022-09-21T06:19:59.387Z,12.21
2022-09-21T06:22:25.973Z,12.09
2022-09-21T06:24:52.519Z,12.14
2022-09-21T06:27:19.052Z,11.98
2022-09-21T06:29:45.625Z,12.16
2022-09-21T06:32:12.454Z,12.14
2022-09-21T06:34:39.045Z,12.44
2022-09-21T06:37:05.626Z,12.69
2022-09-21T06:39:32.237Z,12.69
2022-09-21T06:41:59.471Z,12.82
2022-09-21T06:44:26.385Z,12.71
2022-09-21T06:46:52.929Z,12.64
2022-09-21T06:49:19.493Z,12.89
2022-09-21T06:51:47.921Z,12.82
2022-09-21T06:54:14.823Z,12.86
2022-09-21T06:56:43.255Z,12.96
2022-09-21T06:59:09.845Z,13.01
2022-09-21T07:01:36.616Z,13.34
2022-09-21T07:04:03.270Z,13.54
2022-09-21T07:06:30.080Z,13.59
2022-09-21T07:11:43.275Z,14.16
2022-09-21T07:14:09.805Z,14.49
2022-09-21T07:16:37.091Z,14.55
2022-09-21T07:19:10.989Z,14.42
2022-09-21T07:21:38.180Z,14.66
2022-09-21T07:24:09.575Z,14.64
2022-09-21T07:26:38.435Z,14.10
2022-09-21T07:29:05.186Z,14.17
2022-09-21T07:31:32.049Z,14.51
2022-09-21T07:33:59.152Z,14.70
2022-09-21T07:36:25.785Z,14.26
2022-09-21T07:38:53.938Z,14.49
2022-09-21T07:41:21.130Z,14.51
2022-09-21T07:43:47.729Z,14.43
2022-09-21T07:46:15.240Z,14.14
2022-09-21T07:48:41.975Z,14.20
2022-09-21T07:51:11.121Z,14.15
2022-09-21T07:53:39.259Z,14.25
2022-09-21T07:56:08.614Z,14.38
2022-09-21T07:58:55.293Z,14.27
2022-09-21T08:01:22.625Z,14.27
2022-09-21T08:03:50.792Z,13.93
2022-09-21T08:06:18.167Z,14.25
2022-09-21T08:08:47.840Z,13.94
2022-09-21T08:11:19.779Z,14.11
2022-09-21T08:13:46.393Z,14.27
2022-09-21T08:16:12.975Z,14.40
2022-09-21T08:18:41.281Z,14.50
2022-09-21T08:21:12.048Z,14.50
2022-09-21T08:23:42.772Z,14.45
2022-09-21T08:26:16.448Z,14.37
2022-09-21T08:28:43.790Z,14.56
2022-09-21T08:31:10.843Z,14.65
2022-09-21T08:33:37.494Z,14.48
2022-09-21T08:36:04.365Z,14.10
2022-09-21T08:38:35.562Z,14.18
2022-09-21T08:41:04.781Z,13.76
2022-09-21T08:43:40.836Z,13.58
2022-09-21T08:46:11.209Z,13.61
2022-09-21T08:48:42.390Z,13.55
2022-09-21T08:51:11.522Z,13.88
2022-09-21T08:53:46.175Z,13.93
2022-09-21T08:56:14.273Z,13.90
2022-09-21T08:58:41.288Z,13.86
2022-09-21T09:01:21.648Z,14.05
2022-09-21T09:04:05.643Z,14.77
2022-09-21T09:06:47.461Z,14.88
2022-09-21T09:09:20.029Z,14.44
2022-09-21T09:11:58.726Z,14.22
2022-09-21T09:15:02.221Z,13.95
2022-09-21T09:17:46.421Z,13.76
2022-09-21T09:20:18.779Z,13.95
2022-09-21T09:22:52.746Z,13.88
2022-09-21T09:25:22.086Z,13.71
2022-09-21T09:27:57.190Z,13.82
2022-09-21T09:30:26.205Z,14.11
2022-09-21T09:32:55.678Z,14.04
2022-09-21T09:35:33.117Z,14.13
2022-09-21T09:38:14.701Z,14.16
2022-09-21T09:40:48.709Z,14.58
2022-09-21T09:43:38.498Z,14.52
2022-09-21T09:46:13.225Z,14.30
2022-09-21T09:48:53.900Z,14.59
2022-09-21T09:51:21.033Z,14.46
2022-09-21T09:53:47.602Z,14.71
2022-09-21T09:56:14.858Z,14.68
2022-09-21T09:58:50.870Z,14.52
2022-09-21T10:01:38.252Z,14.54
2022-09-21T10:04:10.123Z,14.36
2022-09-21T10:06:38.619Z,14.31
2022-09-21T10:09:31.314Z,14.37
2022-09-21T10:12:08.128Z,14.17
2022-09-21T10:14:36.753Z,14.40
2022-09-21T10:17:07.938Z,14.93
2022-09-21T10:19:34.783Z,14.95
2022-09-21T10:22:02.682Z,15.14
2022-09-21T10:24:33.403Z,15.66
2022-09-21T10:27:12.392Z,15.64
2022-09-21T10:29:47.691Z,15.86
2022-09-21T10:32:15.089Z,15.79
2022-09-21T10:35:00.891Z,15.82
2022-09-21T10:37:30.856Z,15.71
2022-09-21T10:39:57.657Z,15.50
2022-09-21T10:42:24.215Z,15.07
2022-09-21T10:45:07.194Z,15.34
2022-09-21T10:47:40.861Z,15.54
2022-09-21T10:50:29.043Z,15.90
2022-09-21T10:53:00.568Z,16.06
2022-09-21T10:55:28.670Z,16.43
2022-09-21T10:57:55.476Z,16.82
2022-09-21T11:00:24.711Z,16.93
2022-09-21T11:02:51.920Z,17.00
2022-09-21T11:05:34.315Z,16.61
2022-09-21T11:08:20.448Z,16.42
2022-09-21T11:11:14.629Z,16.10
2022-09-21T11:13:48.097Z,15.81
2022-09-21T11:16:35.164Z,15.57
2022-09-21T11:19:13.286Z,15.99
2022-09-21T11:21:46.899Z,16.29
2022-09-21T11:24:20.028Z,16.49
2022-09-21T11:27:14.477Z,16.36
2022-09-21T11:30:11.282Z,16.46
2022-09-21T11:32:41.374Z,16.15
2022-09-21T11:35:27.588Z,15.98
2022-09-21T11:38:13.425Z,15.83
2022-09-21T11:40:55.833Z,15.37
2022-09-21T11:43:34.344Z,15.17
2022-09-21T11:46:01.488Z,14.84
2022-09-21T11:48:44.675Z,15.12
2022-09-21T11:51:24.114Z,15.51
2022-09-21T11:54:15.447Z,15.59
2022-09-21T11:56:56.451Z,15.71
2022-09-21T11:59:29.877Z,15.84
2022-09-21T12:02:02.629Z,15.97
2022-09-21T12:04:39.409Z,15.76
2022-09-21T12:07:30.230Z,16.01
2022-09-21T12:10:18.745Z,16.22
2022-09-21T12:13:17.399Z,16.45
2022-09-21T12:16:06.259Z,16.42
2022-09-21T12:18:42.546Z,16.00
2022-09-21T12:21:36.352Z,16.01
2022-09-21T12:24:15.297Z,16.24
2022-09-21T12:26:50.435Z,16.44
2022-09-21T12:29:26.726Z,16.27
2022-09-21T12:32:05.667Z,16.06
2022-09-21T12:34:42.040Z,16.04
2022-09-21T12:37:36.198Z,16.19
2022-09-21T12:40:07.067Z,16.53
2022-09-21T12:42:50.073Z,16.66
2022-09-21T12:45:21.250Z,16.73
2022-09-21T12:48:06.628Z,16.63
2022-09-21T12:50:50.253Z,16.48
2022-09-21T12:53:22.094Z,16.56
2022-09-21T12:56:05.439Z,16.65
2022-09-21T12:58:53.869Z,16.78
2022-09-21T13:01:30.653Z,16.96
2022-09-21T13:04:09.614Z,17.02
2022-09-21T13:06:54.862Z,17.17
2022-09-21T13:09:22.769Z,17.07
2022-09-21T13:12:34.595Z,16.87
2022-09-21T13:15:13.726Z,16.85
2022-09-21T13:17:40.973Z,16.96
2022-09-21T13:20:17.185Z,16.94
2022-09-21T13:22:45.163Z,16.98
2022-09-21T13:25:17.793Z,16.83
2022-09-21T13:28:09.053Z,17.09
2022-09-21T13:30:41.495Z,17.43
2022-09-21T13:33:20.253Z,17.65
2022-09-21T13:36:05.122Z,17.44
2022-09-21T13:38:58.480Z,17.35
2022-09-21T13:41:45.499Z,17.59
2022-09-21T13:44:42.670Z,17.77
2022-09-21T13:47:11.954Z,17.79
2022-09-21T13:49:51.132Z,18.03
2022-09-21T13:52:26.656Z,18.20
2022-09-21T13:55:05.844Z,18.37
2022-09-21T13:57:40.132Z,18.56
2022-09-21T14:00:29.688Z,18.54
2022-09-21T14:03:04.357Z,18.87
2022-09-21T14:05:45.943Z,18.69
2022-09-21T14:08:15.584Z,18.70
2022-09-21T14:11:02.580Z,18.07
2022-09-21T14:13:36.923Z,17.77
2022-09-21T14:16:45.753Z,17.57
2022-09-21T14:19:18.082Z,17.63
2022-09-21T14:22:07.744Z,17.45
2022-09-21T14:24:43.662Z,17.64
2022-09-21T14:27:32.435Z,17.73
2022-09-21T14:30:07.135Z,17.49
2022-09-21T14:32:39.432Z,17.60
2022-09-21T14:35:11.455Z,17.43
2022-09-21T14:37:41.292Z,17.27
2022-09-21T14:40:31.251Z,17.10
2022-09-21T14:43:00.557Z,17.17
2022-09-21T14:45:58.090Z,17.25
2022-09-21T14:48:30.434Z,17.29
2022-09-21T14:51:02.209Z,17.11
2022-09-21T14:54:19.636Z,17.00
2022-09-21T14:56:55.541Z,16.64
2022-09-21T14:59:35.734Z,16.53
2022-09-21T15:02:23.559Z,16.48
2022-09-21T15:04:56.095Z,16.12
2022-09-21T15:07:55.991Z,15.98
2022-09-21T15:10:56.172Z,15.41
2022-09-21T15:13:49.473Z,15.56
2022-09-21T15:16:25.769Z,15.66
2022-09-21T15:19:08.577Z,15.54
2022-09-21T15:21:35.622Z,15.48
2022-09-21T15:24:16.872Z,15.40
2022-09-21T15:26:43.750Z,15.36
2022-09-21T15:29:21.593Z,15.21
2022-09-21T15:31:48.549Z,14.91
2022-09-21T15:34:15.403Z,14.78
2022-09-21T15:36:43.617Z,14.78
2022-09-21T15:39:30.873Z,14.87
2022-09-21T15:42:09.608Z,14.66
2022-09-21T15:44:38.351Z,14.70
2022-09-21T15:47:12.541Z,14.65
2022-09-21T15:49:39.648Z,14.60
2022-09-21T15:52:13.977Z,14.60
2022-09-21T15:54:48.982Z,14.50
2022-09-21T15:57:39.165Z,14.48
2022-09-21T16:00:21.391Z,14.30
2022-09-21T16:03:07.420Z,14.10
2022-09-21T16:05:45.955Z,14.08
2022-09-21T16:08:33.838Z,13.99
2022-09-21T16:11:28.993Z,14.11
2022-09-21T16:14:34.613Z,13.95
2022-09-21T16:17:04.333Z,13.62
2022-09-21T16:19:42.157Z,13.53
2022-09-21T16:22:13.898Z,13.55
2022-09-21T16:24:52.736Z,13.39
2022-09-21T16:27:21.114Z,13.33
2022-09-21T16:29:49.758Z,13.15
2022-09-21T16:32:20.800Z,13.11
2022-09-21T16:34:48.704Z,12.95
2022-09-21T16:37:28.724Z,12.97
2022-09-21T16:39:57.207Z,12.87
2022-09-21T16:42:27.877Z,12.82
2022-09-21T16:44:55.325Z,12.87
2022-09-21T16:47:25.106Z,12.73
2022-09-21T16:49:55.330Z,12.60
2022-09-21T16:52:25.281Z,12.47
2022-09-21T16:54:52.001Z,12.38
2022-09-21T16:57:18.872Z,12.23
2022-09-21T16:59:45.471Z,12.07
2022-09-21T17:02:14.091Z,12.10
2022-09-21T17:04:41.352Z,12.15
2022-09-21T17:07:11.193Z,12.15
2022-09-21T17:09:39.417Z,12.04
2022-09-21T17:12:07.941Z,11.91
2022-09-21T17:14:35.844Z,11.86
2022-09-21T17:17:17.190Z,11.72
2022-09-21T17:19:46.414Z,11.66
2022-09-21T17:22:17.255Z,11.74
2022-09-21T17:24:51.173Z,11.62
2022-09-21T17:27:21.261Z,11.44
2022-09-21T17:29:49.501Z,11.44
2022-09-21T17:32:21.851Z,11.37
2022-09-21T17:34:58.784Z,11.30
2022-09-21T17:37:25.623Z,11.23
2022-09-21T17:39:53.642Z,11.14
2022-09-21T17:42:23.011Z,11.10
2022-09-21T17:44:49.492Z,11.11
2022-09-21T17:47:24.758Z,11.05
2022-09-21T17:49:51.633Z,11.06
2022-09-21T17:52:38.914Z,10.96
2022-09-21T17:55:10.268Z,10.97
2022-09-21T17:57:52.207Z,11.11
2022-09-21T18:00:41.340Z,10.85
2022-09-21T18:03:42.553Z,10.92
2022-09-21T18:06:09.866Z,10.94
2022-09-21T18:08:38.383Z,10.90
2022-09-21T18:11:24.785Z,10.81
2022-09-21T18:14:01.601Z,10.74
2022-09-21T18:16:35.452Z,10.89
2022-09-21T18:19:24.568Z,10.77
2022-09-21T18:21:57.395Z,10.63
2022-09-21T18:24:31.025Z,10.72
2022-09-21T18:26:58.616Z,10.79
2022-09-21T18:29:41.635Z,10.82
2022-09-21T18:32:16.824Z,10.78
2022-09-21T18:35:08.626Z,10.90
2022-09-21T18:37:51.625Z,10.75
2022-09-21T18:40:28.849Z,10.81
2022-09-21T18:43:06.170Z,10.78
2022-09-21T18:45:53.739Z,10.82
2022-09-21T18:48:26.089Z,10.66
2022-09-21T18:51:14.137Z,10.66
2022-09-21T18:53:56.428Z,10.81
2022-09-21T18:56:24.842Z,10.66
2022-09-21T18:58:51.804Z,10.67
2022-09-21T19:01:21.807Z,10.67
2022-09-21T19:03:49.728Z,10.69
2022-09-21T19:06:42.720Z,10.64
2022-09-21T19:09:41.866Z,10.55
2022-09-21T19:12:14.409Z,10.74
2022-09-21T19:14:54.154Z,10.51
2022-09-21T19:17:32.420Z,10.42
2022-09-21T19:20:13.919Z,10.45
2022-09-21T19:22:59.141Z,10.38
2022-09-21T19:25:34.107Z,10.30
2022-09-21T19:28:05.242Z,10.29
2022-09-21T19:30:32.200Z,10.22
2022-09-21T19:33:00.022Z,10.24
2022-09-21T19:35:31.395Z,10.25
2022-09-21T19:38:01.437Z,10.21
2022-09-21T19:40:37.750Z,10.25
2022-09-21T19:43:22.670Z,10.23
2022-09-21T19:46:11.552Z,10.18
2022-09-21T19:48:52.162Z,10.26
2022-09-21T19:51:34.491Z,10.18
2022-09-21T19:54:20.286Z,10.29
2022-09-21T19:57:08.563Z,10.33
2022-09-21T19:59:44.322Z,10.37
2022-09-21T20:02:33.459Z,10.42
2022-09-21T20:05:08.723Z,10.30
2022-09-21T20:07:44.182Z,10.35
2022-09-21T20:10:24.068Z,10.40
2022-09-21T20:13:22.037Z,10.33
2022-09-21T20:15:52.484Z,10.41
2022-09-21T20:18:21.852Z,10.35
2022-09-21T20:20:48.495Z,10.28
2022-09-21T20:23:15.206Z,10.31
2022-09-21T20:25:56.877Z,10.28
2022-09-21T20:28:24.188Z,10.31
2022-09-21T20:30:50.844Z,10.25
2022-09-21T20:33:22.742Z,10.23
2022-09-21T20:35:50.382Z,10.24
2022-09-21T20:38:17.927Z,10.21
2022-09-21T20:40:45.245Z,10.21
2022-09-21T20:43:12.070Z,10.17
2022-09-21T20:45:40.821Z,10.23
2022-09-21T20:48:14.490Z,10.40
2022-09-21T20:50:46.774Z,10.29
2022-09-21T20:53:13.512Z,10.11
2022-09-21T20:55:41.080Z,10.13
2022-09-21T20:58:11.434Z,10.04
2022-09-21T21:00:38.100Z,9.96
2022-09-21T21:03:05.269Z,9.91
2022-09-21T21:05:32.771Z,9.95
2022-09-21T21:07:59.354Z,9.81
2022-09-21T21:10:25.960Z,9.79
2022-09-21T21:12:52.562Z,9.65
2022-09-21T21:15:19.135Z,9.59
2022-09-21T21:17:47.195Z,9.60
2022-09-21T21:20:16.293Z,9.49
2022-09-21T21:22:44.346Z,9.47
2022-09-21T21:25:11.275Z,9.41
2022-09-21T21:27:38.003Z,9.37
2022-09-21T21:30:05.546Z,9.27
2022-09-21T21:32:32.547Z,9.21
2022-09-21T21:34:59.188Z,9.14
2022-09-21T21:37:26.549Z,9.16
2022-09-21T21:39:53.822Z,9.14
2022-09-21T21:42:21.016Z,9.08
2022-09-21T21:44:48.563Z,8.95
2022-09-21T21:47:38.316Z,8.96
2022-09-21T21:50:01.781Z,8.85
2022-09-21T21:52:28.379Z,8.79
2022-09-21T21:54:55.019Z,8.74
2022-09-21T21:57:21.550Z,8.65
2022-09-21T21:59:48.296Z,8.79
2022-09-21T22:02:15.448Z,8.76
2022-09-21T22:04:42.237Z,8.70
2022-09-21T22:07:08.775Z,8.66
2022-09-21T22:09:35.430Z,8.62
2022-09-21T22:12:03.584Z,8.59
2022-09-21T22:14:30.346Z,8.55
2022-09-21T22:16:59.185Z,8.55
2022-09-21T22:19:26.049Z,8.47
2022-09-21T22:21:54.438Z,8.44
2022-09-21T22:24:21.675Z,8.43
2022-09-21T22:26:48.689Z,8.36
2022-09-21T22:29:17.141Z,8.37
2022-09-21T22:31:49.824Z,8.36
2022-09-21T22:34:16.788Z,8.28
2022-09-21T22:36:43.956Z,8.23
2022-09-21T22:39:11.538Z,8.12
2022-09-21T22:41:39.974Z,8.12
2022-09-21T22:44:07.201Z,8.13
2022-09-21T22:46:34.427Z,8.09
2022-09-21T22:49:01.376Z,8.06
2022-09-21T22:51:28.620Z,8.08
2022-09-21T22:53:55.428Z,8.16
2022-09-21T22:56:24.462Z,8.06
2022-09-21T22:58:53.163Z,8.03
2022-09-21T23:01:26.377Z,8.01
2022-09-21T23:03:55.481Z,7.95
2022-09-21T23:06:23.470Z,7.91
2022-09-21T23:08:50.804Z,7.89
2022-09-21T23:11:21.837Z,7.82
2022-09-21T23:13:49.113Z,7.79
2022-09-21T23:16:16.898Z,7.74
2022-09-21T23:18:44.214Z,7.75
2022-09-21T23:21:14.110Z,7.67
2022-09-21T23:23:41.394Z,7.66
2022-09-21T23:26:34.920Z,7.64
2022-09-21T23:29:03.804Z,7.59
2022-09-21T23:31:31.810Z,7.57
2022-09-21T23:34:00.586Z,7.52
2022-09-21T23:36:29.278Z,7.50
2022-09-21T23:38:56.525Z,7.45
2022-09-21T23:41:34.151Z,7.43
2022-09-21T23:44:01.581Z,7.42
2022-09-21T23:46:32.835Z,7.45
2022-09-21T23:49:00.502Z,7.43
2022-09-21T23:51:27.574Z,7.46
2022-09-21T23:53:54.182Z,7.42
2022-09-21T23:56:22.671Z,7.45
2022-09-21T23:58:49.465Z,7.54
